Time;durP1;ratioP1;P1;durP2;ratioP2;P2;SDS_P1;SDS_P2;PMS_P1;PMS_P2;Temp;Humidity;BMP_temperature;BMP_pressure;BME280_temperature;BME280_humidity;BME280_pressure;Samples;Min_cycle;Max_cycle;Signal;HPM_P1;HPM_P2
2022/08/16 00:02:06;;;;;;;10.80;7.60;;;;;;;18.76;100.00;99928.50;5007124;28;20932;-91
2022/08/16 00:04:35;;;;;;;11.55;7.88;;;;;;;18.75;100.00;99912.31;5009924;28;20939;-92
2022/08/16 00:07:04;;;;;;;11.43;8.02;;;;;;;18.86;100.00;99921.66;5011774;28;20446;-92
2022/08/16 00:09:32;;;;;;;11.90;7.70;;;;;;;18.76;100.00;99914.72;5027451;28;20426;-92
2022/08/16 00:12:01;;;;;;;11.45;7.15;;;;;;;18.84;100.00;99921.22;5025206;28;20420;-94
2022/08/16 00:14:32;;;;;;;11.15;7.65;;;;;;;18.73;100.00;99931.97;5014699;28;20411;-92
2022/08/16 00:17:02;;;;;;;12.38;7.82;;;;;;;18.76;100.00;99919.44;5009856;28;20431;-91
2022/08/16 00:19:38;;;;;;;10.68;7.65;;;;;;;18.53;100.00;99875.91;5021953;28;20419;-92
2022/08/16 00:22:06;;;;;;;10.48;7.15;;;;;;;18.58;100.00;99900.47;5038654;28;20423;-94
2022/08/16 00:24:38;;;;;;;10.20;7.32;;;;;;;18.44;100.00;99873.34;5041498;28;20441;-91
2022/08/16 00:27:25;;;;;;;10.70;7.67;;;;;;;18.69;100.00;99920.81;5008178;28;20411;-90
2022/08/16 00:30:13;;;;;;;20.30;7.25;;;;;;;18.53;100.00;99918.06;5024994;28;20436;-90
2022/08/16 00:32:59;;;;;;;9.98;6.93;;;;;;;18.32;100.00;99879.69;5033741;28;20903;-89
2022/08/16 00:36:17;;;;;;;11.88;7.20;;;;;;;18.69;100.00;99928.31;5047536;28;20419;-90
2022/08/16 00:39:21;;;;;;;11.40;6.90;;;;;;;18.36;100.00;99875.09;5044024;28;20427;-89
2022/08/16 00:41:51;;;;;;;10.02;6.68;;;;;;;18.59;100.00;99901.25;5018159;28;20419;-91
2022/08/16 00:44:21;;;;;;;12.85;7.00;;;;;;;18.72;100.00;99922.09;5026857;28;20463;-91
2022/08/16 00:47:00;;;;;;;9.13;6.50;;;;;;;18.64;100.00;99912.03;5032886;28;20419;-90
2022/08/16 00:49:34;;;;;;;9.40;6.50;;;;;;;18.65;100.00;99924.66;5027676;28;20439;-91
2022/08/16 00:52:04;;;;;;;9.90;6.38;;;;;;;18.59;100.00;99912.28;5031365;28;20426;-91
2022/08/16 00:54:38;;;;;;;9.05;6.53;;;;;;;18.55;100.00;99923.22;5007749;28;20411;-91
2022/08/16 00:57:13;;;;;;;9.77;6.50;;;;;;;18.54;100.00;99918.84;5015919;28;20423;-93
2022/08/16 00:59:46;;;;;;;9.00;6.63;;;;;;;18.43;100.00;99921.31;5017150;28;20772;-92
2022/08/16 01:02:20;;;;;;;9.50;6.30;;;;;;;18.60;100.00;99934.00;5018680;28;20785;-91
2022/08/16 01:04:49;;;;;;;9.23;6.53;;;;;;;18.67;100.00;99936.13;5030839;28;20430;-90
2022/08/16 01:07:18;;;;;;;10.10;6.57;;;;;;;18.43;100.00;99904.00;5029941;28;20435;-90
2022/08/16 01:09:53;;;;;;;10.68;7.13;;;;;;;18.44;100.00;99935.91;5016152;28;20419;-92
2022/08/16 01:12:21;;;;;;;10.90;6.90;;;;;;;18.46;100.00;99950.13;5029980;28;20807;-90
2022/08/16 01:14:56;;;;;;;10.38;6.68;;;;;;;18.38;100.00;99943.63;5008687;28;20441;-90
2022/08/16 01:17:31;;;;;;;11.52;6.78;;;;;;;18.31;100.00;99932.38;5008602;28;20903;-89
2022/08/16 01:20:07;;;;;;;11.38;7.07;;;;;;;18.36;100.00;99951.41;5028408;28;20434;-88
2022/08/16 01:22:47;;;;;;;10.02;7.63;;;;;;;18.38;100.00;99946.38;5030109;28;20415;-90
2022/08/16 01:25:25;;;;;;;11.52;8.57;;;;;;;18.42;100.00;99957.47;5013925;28;20418;-88
2022/08/16 01:27:58;;;;;;;10.73;8.35;;;;;;;18.32;100.00;99926.53;5016274;28;20423;-88
2022/08/16 01:30:35;;;;;;;10.70;8.35;;;;;;;18.50;100.00;99949.06;5021484;28;20940;-89
2022/08/16 01:33:07;;;;;;;12.38;8.70;;;;;;;18.48;100.00;99947.81;5033906;28;20958;-89
2022/08/16 01:35:45;;;;;;;12.10;8.65;;;;;;;18.41;100.00;99947.59;5010822;28;20431;-89
2022/08/16 01:38:22;;;;;;;12.25;8.52;;;;;;;18.37;100.00;99939.25;5024227;28;20418;-90
2022/08/16 01:40:55;;;;;;;11.60;8.88;;;;;;;18.33;100.00;99952.13;5026770;28;20644;-91
2022/08/16 01:43:30;;;;;;;11.82;8.93;;;;;;;18.38;100.00;99946.38;5011777;28;20884;-91
2022/08/16 01:46:07;;;;;;;11.93;8.93;;;;;;;18.46;100.00;99944.59;5007432;28;20430;-90
2022/08/16 01:48:35;;;;;;;11.85;8.27;;;;;;;18.44;100.00;99946.94;5010265;28;20447;-89
2022/08/16 01:51:09;;;;;;;12.35;8.85;;;;;;;18.51;100.00;99950.66;5028393;28;20430;-90
2022/08/16 01:53:37;;;;;;;10.73;8.60;;;;;;;18.40;100.00;99924.78;5024602;28;20434;-89
2022/08/16 01:56:13;;;;;;;12.18;8.50;;;;;;;18.51;100.00;99949.88;5022776;28;20783;-88
2022/08/16 01:58:41;;;;;;;12.30;8.88;;;;;;;18.29;100.00;99918.19;5011469;28;20426;-88
2022/08/16 02:01:14;;;;;;;10.75;8.70;;;;;;;18.47;100.00;99946.22;5025639;28;20784;-88
2022/08/16 02:03:42;;;;;;;11.00;8.27;;;;;;;18.51;100.00;99941.59;5029470;28;20902;-88
2022/08/16 02:06:10;;;;;;;10.85;8.00;;;;;;;18.53;100.00;99934.59;5013002;28;20431;-91
2022/08/16 02:08:44;;;;;;;11.30;8.20;;;;;;;18.36;100.00;99930.19;5028754;28;20423;-88
2022/08/16 02:11:15;;;;;;;12.23;8.38;;;;;;;18.30;100.00;99934.34;5026510;28;20423;-86
2022/08/16 02:13:44;;;;;;;12.35;8.15;;;;;;;18.26;100.00;99933.44;5013659;28;20423;-87
2022/08/16 02:16:19;;;;;;;12.10;8.25;;;;;;;18.23;100.00;99939.66;5007722;28;20796;-88
2022/08/16 02:18:48;;;;;;;11.82;7.90;;;;;;;18.30;100.00;99942.59;5017853;28;20434;-86
2022/08/16 02:21:17;;;;;;;11.82;7.60;;;;;;;18.29;100.00;99949.25;5028930;28;20411;-87
2022/08/16 02:23:45;;;;;;;11.98;8.32;;;;;;;18.22;100.00;99946.31;5006931;28;20815;-87
2022/08/16 02:26:15;;;;;;;11.50;8.00;;;;;;;18.15;100.00;99935.09;5012141;28;20419;-87
2022/08/16 02:28:48;;;;;;;13.65;8.32;;;;;;;18.19;100.00;99953.31;5012184;28;20420;-86
2022/08/16 02:31:22;;;;;;;11.02;8.15;;;;;;;18.16;100.00;99943.00;5002884;28;20450;-87
2022/08/16 02:33:50;;;;;;;12.05;8.50;;;;;;;18.17;100.00;99933.59;5005927;28;20892;-87
2022/08/16 02:36:31;;;;;;;11.13;7.83;;;;;;;18.27;100.00;99932.31;5011793;28;20772;-87
2022/08/16 02:39:06;;;;;;;12.13;8.38;;;;;;;18.33;100.00;99938.34;5030057;28;20807;-86
2022/08/16 02:41:37;;;;;;;12.20;8.67;;;;;;;18.32;100.00;99931.25;5028540;28;20428;-87
2022/08/16 02:44:12;;;;;;;13.32;8.63;;;;;;;18.28;100.00;99930.34;5028215;28;20780;-86
2022/08/16 02:46:49;;;;;;;12.90;9.10;;;;;;;18.18;100.00;99939.91;5023200;28;20896;-86
2022/08/16 02:49:18;;;;;;;14.30;9.27;;;;;;;18.22;100.00;99940.81;5023659;28;20448;-87
2022/08/16 02:51:47;;;;;;;12.43;9.10;;;;;;;18.15;100.00;99915.81;5006857;28;20757;-86
2022/08/16 02:54:15;;;;;;;13.53;9.80;;;;;;;18.22;100.00;99929.00;5012414;28;20517;-87
2022/08/16 02:56:51;;;;;;;12.43;9.43;;;;;;;18.31;100.00;99935.97;5009805;28;20444;-87
2022/08/16 02:59:24;;;;;;;12.82;9.73;;;;;;;18.34;100.00;99923.44;5030380;28;20516;-86
2022/08/16 03:01:57;;;;;;;14.13;10.75;;;;;;;18.32;100.00;99926.53;5014598;28;20428;-87
2022/08/16 03:04:31;;;;;;;15.43;11.25;;;;;;;18.32;100.00;99932.03;5013765;28;20420;-86
2022/08/16 03:06:59;;;;;;;13.60;10.73;;;;;;;18.38;100.00;99920.75;5004974;28;20438;-86
2022/08/16 03:09:38;;;;;;;13.75;10.68;;;;;;;18.40;100.00;99912.97;5025070;28;20438;-86
2022/08/16 03:12:08;;;;;;;14.75;11.00;;;;;;;18.36;100.00;99913.66;5011418;28;20438;-87
2022/08/16 03:14:36;;;;;;;14.45;10.80;;;;;;;18.44;100.00;99913.88;5020958;28;20911;-87
2022/08/16 03:17:05;;;;;;;16.05;12.00;;;;;;;18.41;100.00;99918.13;5008719;28;20417;-87
2022/08/16 03:19:39;;;;;;;17.10;10.90;;;;;;;18.45;100.00;99932.78;5026252;28;20423;-86
2022/08/16 03:22:15;;;;;;;13.98;11.05;;;;;;;18.47;100.00;99930.47;5011360;28;20546;-86
2022/08/16 03:24:43;;;;;;;15.23;11.43;;;;;;;18.44;100.00;99925.69;5006322;28;20779;-87
2022/08/16 03:27:13;;;;;;;15.40;11.68;;;;;;;18.41;100.00;99925.56;5026963;28;20430;-86
2022/08/16 03:29:47;;;;;;;15.13;11.45;;;;;;;18.22;100.00;99891.22;5024414;28;20431;-87
2022/08/16 03:32:20;;;;;;;15.48;12.07;;;;;;;18.32;100.00;99925.72;5011981;28;20425;-86
2022/08/16 03:34:48;;;;;;;15.73;12.37;;;;;;;18.43;100.00;99926.81;5011388;28;20902;-86
2022/08/16 03:37:22;;;;;;;15.40;11.43;;;;;;;18.47;100.00;99927.72;5010996;28;20463;-86
2022/08/16 03:39:55;;;;;;;14.95;11.60;;;;;;;18.41;100.00;99933.81;5014398;28;20421;-86
2022/08/16 03:42:25;;;;;;;16.85;12.23;;;;;;;18.36;100.00;99934.91;5012274;28;20429;-86
2022/08/16 03:44:58;;;;;;;15.68;12.05;;;;;;;18.42;100.00;99924.41;5004725;28;20784;-86
2022/08/16 03:47:35;;;;;;;15.93;11.70;;;;;;;18.43;100.00;99918.56;5021817;28;20445;-87
2022/08/16 03:50:09;;;;;;;17.40;12.30;;;;;;;18.45;100.00;99923.72;5025200;28;20423;-87
2022/08/16 03:52:42;;;;;;;15.70;11.38;;;;;;;18.46;100.00;99920.63;5027532;28;20426;-86
2022/08/16 03:55:12;;;;;;;16.42;11.90;;;;;;;18.45;100.00;99931.97;5007648;28;20419;-84
2022/08/16 03:57:48;;;;;;;15.82;12.32;;;;;;;18.43;100.00;99937.06;5010187;28;20439;-86
2022/08/16 04:00:27;;;;;;;17.17;12.37;;;;;;;18.41;100.00;99942.91;5027792;28;20418;-86
2022/08/16 04:02:57;;;;;;;16.27;12.05;;;;;;;18.42;100.00;99944.53;5008610;28;20434;-86
2022/08/16 04:05:31;;;;;;;16.13;12.07;;;;;;;18.38;100.00;99943.63;5028579;28;20896;-87
2022/08/16 04:07:59;;;;;;;17.02;12.82;;;;;;;18.36;100.00;99951.41;5010587;28;20430;-86
2022/08/16 04:10:32;;;;;;;15.45;11.80;;;;;;;18.41;100.00;99953.13;5027336;28;20779;-87
2022/08/16 04:13:02;;;;;;;16.13;12.27;;;;;;;18.37;100.00;99953.03;5009799;28;20431;-87
2022/08/16 04:15:37;;;;;;;16.98;12.10;;;;;;;18.43;100.00;99948.06;5023945;28;20423;-87
2022/08/16 04:18:16;;;;;;;18.13;11.88;;;;;;;18.45;100.00;99943.81;5009141;28;20438;-86
2022/08/16 04:20:45;;;;;;;15.82;11.30;;;;;;;18.45;100.00;99949.31;5024425;28;20431;-87
2022/08/16 04:23:22;;;;;;;17.58;13.20;;;;;;;18.33;100.00;99952.91;5002324;28;20903;-87
2022/08/16 04:25:57;;;;;;;16.50;12.55;;;;;;;18.38;100.00;99951.06;5007351;28;20465;-86
2022/08/16 04:28:26;;;;;;;17.17;12.60;;;;;;;18.31;100.00;99940.66;5024254;28;20442;-85
2022/08/16 04:30:59;;;;;;;16.90;12.30;;;;;;;18.38;100.00;99956.56;5009449;28;20429;-87
2022/08/16 04:33:34;;;;;;;16.47;12.43;;;;;;;18.45;100.00;99946.56;5005046;28;20907;-87
2022/08/16 04:36:08;;;;;;;16.60;12.10;;;;;;;18.44;100.00;99946.94;5010451;28;20430;-88
2022/08/16 04:38:41;;;;;;;15.50;12.43;;;;;;;18.31;100.00;99941.47;5020765;28;20456;-86
2022/08/16 04:41:15;;;;;;;17.65;12.43;;;;;;;18.37;100.00;99955.78;5010223;28;20427;-85
2022/08/16 04:43:44;;;;;;;17.53;12.83;;;;;;;18.42;100.00;99985.03;5007702;28;20425;-85
2022/08/16 04:46:18;;;;;;;17.03;12.73;;;;;;;18.40;100.00;99988.13;5008972;28;20789;-85
2022/08/16 04:48:51;;;;;;;21.50;13.02;;;;;;;18.41;100.00;99975.16;5024490;28;20430;-85
2022/08/16 04:51:24;;;;;;;16.48;13.07;;;;;;;18.30;100.00;99944.56;5009524;28;20418;-85
2022/08/16 04:53:57;;;;;;;17.35;13.00;;;;;;;18.36;100.00;99968.75;5018952;28;20456;-85
2022/08/16 04:56:26;;;;;;;17.97;13.90;;;;;;;18.40;100.00;99984.59;5025805;28;20427;-86
2022/08/16 04:58:55;;;;;;;17.23;12.68;;;;;;;18.42;100.00;99991.34;5008172;28;20438;-85
2022/08/16 05:01:23;;;;;;;15.85;12.40;;;;;;;18.41;100.00;99987.00;5024868;28;20427;-85
2022/08/16 05:03:57;;;;;;;17.73;12.73;;;;;;;18.35;100.00;99975.41;5002839;28;20425;-86
2022/08/16 05:06:36;;;;;;;18.00;13.05;;;;;;;18.42;100.00;99988.59;5002889;28;20922;-85
2022/08/16 05:09:09;;;;;;;17.15;13.40;;;;;;;18.39;100.00;99988.50;5007971;28;20442;-86
2022/08/16 05:11:38;;;;;;;17.80;12.77;;;;;;;18.43;100.00;99984.69;5019242;28;20434;-85
2022/08/16 05:14:12;;;;;;;16.85;12.98;;;;;;;18.47;100.00;99980.06;5002847;28;20958;-85
2022/08/16 05:16:46;;;;;;;18.17;13.73;;;;;;;18.50;100.00;99978.56;5008584;28;20436;-85
2022/08/16 05:19:16;;;;;;;16.75;12.82;;;;;;;18.41;100.00;99956.69;5028367;28;20418;-86
2022/08/16 05:22:04;;;;;;;20.35;13.10;;;;;;;18.58;100.00;99980.38;5028574;28;20430;-86
2022/08/16 05:24:40;;;;;;;16.42;12.57;;;;;;;18.63;100.00;99974.63;5000748;28;20437;-85
2022/08/16 05:27:14;;;;;;;19.67;12.93;;;;;;;18.65;100.00;99977.00;5021876;28;20431;-85
2022/08/16 05:29:49;;;;;;;17.10;12.70;;;;;;;18.66;100.00;99982.16;5012217;28;20788;-85
2022/08/16 05:32:19;;;;;;;17.67;13.45;;;;;;;18.64;100.00;99981.75;5022713;28;20425;-86
2022/08/16 05:34:48;;;;;;;17.83;12.80;;;;;;;18.72;100.00;99982.72;5029017;28;20954;-86
2022/08/16 05:37:23;;;;;;;16.75;12.82;;;;;;;18.75;100.00;99986.72;5028831;28;20453;-86
2022/08/16 05:39:56;;;;;;;20.27;13.40;;;;;;;18.61;100.00;99973.34;5008594;28;20432;-87
2022/08/16 05:42:29;;;;;;;18.50;13.70;;;;;;;18.77;100.00;99999.00;5012639;28;20921;-86
2022/08/16 05:45:05;;;;;;;18.80;13.48;;;;;;;18.70;100.00;99991.34;5000822;28;20432;-86
2022/08/16 05:47:35;;;;;;;18.10;13.02;;;;;;;18.81;100.00;100001.84;5026259;28;20895;-86
2022/08/16 05:50:04;;;;;;;19.57;13.60;;;;;;;18.77;100.00;99998.22;5027962;28;20443;-85
2022/08/16 05:52:34;;;;;;;16.95;13.93;;;;;;;18.85;100.00;99998.03;5012335;28;20418;-85
2022/08/16 05:55:09;;;;;;;19.63;13.60;;;;;;;18.91;100.00;99997.84;4998916;28;20425;-85
2022/08/16 05:57:42;;;;;;;17.98;13.68;;;;;;;18.85;100.00;99994.47;5018807;28;20466;-85
2022/08/16 06:00:13;;;;;;;18.83;14.02;;;;;;;18.91;100.00;100009.66;5008424;28;20435;-86
2022/08/16 06:02:49;;;;;;;18.13;13.90;;;;;;;18.97;100.00;100010.97;4998382;28;20975;-82
2022/08/16 06:05:41;;;;;;;21.20;14.70;;;;;;;19.08;100.00;100018.75;5019735;28;20431;-85
2022/08/16 06:08:10;;;;;;;21.48;14.63;;;;;;;19.02;100.00;100024.50;5021914;28;20431;-84
2022/08/16 06:10:47;;;;;;;21.05;15.27;;;;;;;19.12;100.00;100017.69;5018855;28;20431;-84
2022/08/16 06:13:21;;;;;;;19.27;14.70;;;;;;;19.17;100.00;100019.38;5010628;28;20934;-85
2022/08/16 06:15:56;;;;;;;19.38;14.80;;;;;;;19.27;100.00;100024.38;5027104;28;20427;-83
2022/08/16 06:18:30;;;;;;;20.10;14.65;;;;;;;19.35;100.00;100028.13;5005532;28;20799;-85
2022/08/16 06:21:00;;;;;;;21.45;16.02;;;;;;;19.48;100.00;100026.06;5027693;28;20435;-82
2022/08/16 06:23:28;;;;;;;19.88;14.75;;;;;;;19.74;100.00;100031.03;5005403;28;20434;-84
2022/08/16 06:26:05;;;;;;;24.42;15.50;;;;;;;19.87;100.00;100023.47;5014358;28;20429;-85
2022/08/16 06:28:43;;;;;;;19.80;14.80;;;;;;;19.86;100.00;100036.47;5021985;28;20434;-85
2022/08/16 06:31:23;;;;;;;20.35;14.40;;;;;;;19.93;100.00;100019.28;5010970;28;20438;-85
2022/08/16 06:33:58;;;;;;;18.55;14.07;;;;;;;20.07;100.00;100023.53;5013867;28;20962;-85
2022/08/16 06:36:35;;;;;;;18.95;14.75;;;;;;;20.25;100.00;100033.00;4987101;28;20431;-86
2022/08/16 06:39:16;;;;;;;18.27;14.10;;;;;;;20.37;100.00;100029.31;4988894;28;20423;-85
2022/08/16 06:41:55;;;;;;;18.52;14.68;;;;;;;20.28;100.00;100037.00;5000675;28;20414;-84
2022/08/16 06:44:44;;;;;;;19.35;15.02;;;;;;;20.53;100.00;100038.31;5001486;28;20436;-85
2022/08/16 06:47:32;;;;;;;23.30;15.52;;;;;;;20.36;100.00;100038.78;4986298;28;20452;-85
2022/08/16 06:50:00;;;;;;;21.77;15.80;;;;;;;20.22;100.00;100053.06;5005092;28;20414;-83
2022/08/16 06:52:39;;;;;;;21.55;16.30;;;;;;;20.02;100.00;100057.75;4987339;28;20437;-84
2022/08/16 06:55:15;;;;;;;21.43;16.50;;;;;;;20.01;100.00;100061.66;5004136;28;20431;-85
2022/08/16 06:57:53;;;;;;;24.83;16.20;;;;;;;20.18;100.00;100052.97;4987841;28;20410;-85
2022/08/16 07:00:24;;;;;;;22.98;17.33;;;;;;;20.32;100.00;100062.75;4986577;28;20436;-83
2022/08/16 07:03:05;;;;;;;22.63;16.20;;;;;;;20.22;100.00;100062.16;4984019;28;20911;-84
2022/08/16 07:05:34;;;;;;;18.95;15.73;;;;;;;20.20;100.00;100063.66;4983793;28;20421;-84
2022/08/16 07:08:22;;;;;;;21.05;17.23;;;;;;;20.23;100.00;100068.47;4980612;28;20423;-84
2022/08/16 07:10:51;;;;;;;22.42;15.73;;;;;;;20.38;100.00;100059.34;4990738;28;20425;-83
2022/08/16 07:13:26;;;;;;;20.80;16.92;;;;;;;20.63;100.00;100055.50;5002109;28;20422;-84
2022/08/16 07:16:00;;;;;;;22.77;16.92;;;;;;;20.54;100.00;100048.22;4992439;28;20429;-83
2022/08/16 07:18:36;;;;;;;22.80;17.13;;;;;;;20.49;100.00;100056.78;4998356;28;20418;-83
2022/08/16 07:21:05;;;;;;;21.50;16.17;;;;;;;20.60;100.00;100047.94;4989097;28;20422;-85
2022/08/16 07:23:33;;;;;;;22.05;16.42;;;;;;;20.81;100.00;100059.47;4982279;28;20416;-84
2022/08/16 07:26:15;;;;;;;22.60;17.27;;;;;;;20.85;100.00;100054.81;5003688;28;20418;-85
2022/08/16 07:28:49;;;;;;;24.37;16.97;;;;;;;20.98;100.00;100057.44;5003721;28;20429;-84
2022/08/16 07:31:23;;;;;;;19.42;15.55;;;;;;;21.16;100.00;100060.53;4998849;28;20401;-85
2022/08/16 07:33:57;;;;;;;20.42;16.10;;;;;;;21.20;100.00;100064.16;5007919;28;20435;-84
2022/08/16 07:36:34;;;;;;;21.58;15.07;;;;;;;21.32;100.00;100064.00;4998138;28;20436;-84
2022/08/16 07:39:08;;;;;;;18.13;14.13;;;;;;;21.38;100.00;100056.97;4997667;28;20430;-85
2022/08/16 07:41:43;;;;;;;20.15;15.02;;;;;;;21.52;100.00;100059.22;5000457;28;20514;-84
2022/08/16 07:44:16;;;;;;;18.50;14.57;;;;;;;21.60;100.00;100062.91;5011389;28;20422;-85
2022/08/16 07:46:49;;;;;;;18.95;13.90;;;;;;;21.66;100.00;100066.94;4997236;28;20895;-85
2022/08/16 07:49:24;;;;;;;17.63;13.82;;;;;;;21.78;100.00;100073.44;5009288;28;20420;-85
2022/08/16 07:51:58;;;;;;;17.50;13.00;;;;;;;21.80;100.00;100071.91;4983732;28;20431;-85
2022/08/16 07:54:32;;;;;;;16.83;13.50;;;;;;;21.87;100.00;100082.31;5002554;28;20422;-83
2022/08/16 07:57:09;;;;;;;16.55;12.75;;;;;;;21.69;100.00;100071.75;4998601;28;20451;-84
2022/08/16 07:59:43;;;;;;;18.98;13.23;;;;;;;21.41;100.00;100080.34;5011659;28;21089;-85
2022/08/16 08:02:19;;;;;;;16.48;13.35;;;;;;;21.40;100.00;100093.38;4993767;28;20434;-83
2022/08/16 08:04:57;;;;;;;17.00;12.75;;;;;;;21.44;100.00;100096.19;4982798;28;20682;-84
2022/08/16 08:07:30;;;;;;;17.13;13.00;;;;;;;21.64;100.00;100082.31;4987710;28;20430;-82
2022/08/16 08:09:59;;;;;;;18.00;13.23;;;;;;;21.89;100.00;100094.63;4983482;28;20466;-85
2022/08/16 08:12:29;;;;;;;18.08;12.60;;;;;;;22.11;100.00;100096.91;4998589;28;21128;-84
2022/08/16 08:15:02;;;;;;;17.10;12.90;;;;;;;22.28;100.00;100101.94;4981372;28;20953;-85
2022/08/16 08:17:37;;;;;;;17.10;12.77;;;;;;;22.49;100.00;100098.69;4978433;28;20673;-85
2022/08/16 08:20:16;;;;;;;16.73;13.25;;;;;;;22.62;100.00;100096.50;4985072;28;20433;-84
2022/08/16 08:22:45;;;;;;;17.42;12.40;;;;;;;22.65;100.00;100106.84;5008245;28;20773;-84
2022/08/16 08:25:15;;;;;;;14.27;11.23;;;;;;;22.75;100.00;100108.13;4984336;28;20434;-84
2022/08/16 08:27:43;;;;;;;15.57;9.68;;;;;;;22.78;100.00;100101.03;4991172;28;20426;-83
2022/08/16 08:30:16;;;;;;;13.10;9.50;;;;;;;22.82;100.00;100113.00;4982246;28;20418;-85
2022/08/16 08:32:52;;;;;;;13.40;8.82;;;;;;;22.70;100.00;100119.56;5017738;28;20747;-84
2022/08/16 08:35:22;;;;;;;12.85;8.80;;;;;;;22.52;100.00;100122.88;4981819;28;20421;-83
2022/08/16 08:37:57;;;;;;;12.95;8.85;;;;;;;22.53;100.00;100121.72;4984157;28;20494;-84
2022/08/16 08:40:32;;;;;;;13.13;9.18;;;;;;;22.50;100.00;100132.78;4978821;28;21033;-84
2022/08/16 08:43:10;;;;;;;12.80;9.32;;;;;;;22.47;100.00;100125.19;5002985;28;20424;-84
2022/08/16 08:45:47;;;;;;;13.85;9.50;;;;;;;22.62;100.00;100121.47;4984778;28;20434;-84
2022/08/16 08:48:22;;;;;;;13.32;9.60;;;;;;;22.70;100.00;100114.00;4986111;28;20423;-85
2022/08/16 08:50:56;;;;;;;13.23;10.07;;;;;;;22.66;100.00;100121.47;5004842;28;20456;-85
2022/08/16 08:53:31;;;;;;;13.32;10.20;;;;;;;22.65;100.00;100119.88;4989215;28;20459;-83
2022/08/16 08:56:06;;;;;;;13.57;9.73;;;;;;;22.88;100.00;100125.34;5008577;28;20410;-84
2022/08/16 08:58:35;;;;;;;12.73;9.80;;;;;;;23.00;100.00;100127.84;4995066;28;20425;-86
2022/08/16 09:01:22;;;;;;;15.13;10.10;;;;;;;23.14;100.00;100126.47;5003417;28;20415;-85
2022/08/16 09:03:56;;;;;;;14.10;9.63;;;;;;;23.19;100.00;100134.47;4996102;28;20921;-86
2022/08/16 09:06:25;;;;;;;16.95;11.63;;;;;;;22.99;100.00;100139.34;4981570;28;20899;-84
2022/08/16 09:08:59;;;;;;;15.77;11.10;;;;;;;23.01;100.00;100134.22;4992543;28;20415;-86
2022/08/16 09:11:34;;;;;;;13.93;11.30;;;;;;;22.98;100.00;100132.19;4986737;28;20941;-85
2022/08/16 09:14:08;;;;;;;16.00;11.27;;;;;;;23.09;100.00;100144.22;4995423;28;20411;-83
2022/08/16 09:16:37;;;;;;;16.10;10.07;;;;;;;23.25;100.00;100147.59;4985339;28;20422;-84
2022/08/16 09:19:10;;;;;;;15.85;10.30;;;;;;;23.40;100.00;100156.88;5004751;28;20994;-84
2022/08/16 09:21:40;;;;;;;13.55;8.60;;;;;;;23.38;100.00;100144.56;4991944;28;20419;-84
2022/08/16 09:24:13;;;;;;;14.57;8.00;;;;;;;23.40;100.00;100143.00;4986283;28;20861;-85
2022/08/16 09:26:48;;;;;;;11.07;7.60;;;;;;;23.59;100.00;100146.78;4992908;28;20958;-84
2022/08/16 09:29:21;;;;;;;8.55;6.18;;;;;;;23.52;100.00;100144.72;5001392;28;20428;-85
2022/08/16 09:31:56;;;;;;;8.93;5.70;;;;;;;23.52;100.00;100135.56;5004692;28;20421;-83
2022/08/16 09:34:25;;;;;;;8.45;5.90;;;;;;;23.56;100.00;100134.44;5015799;28;20413;-85
2022/08/16 09:36:59;;;;;;;9.35;6.00;;;;;;;23.57;100.00;100138.84;5004628;28;20425;-84
2022/08/16 09:39:33;;;;;;;9.98;5.68;;;;;;;23.77;100.00;100139.41;5005026;28;21985;-84
2022/08/16 09:42:01;;;;;;;10.02;5.70;;;;;;;24.02;100.00;100146.41;4987685;28;20427;-84
2022/08/16 09:44:35;;;;;;;9.93;6.00;;;;;;;23.90;100.00;100145.47;4982777;28;20456;-84
2022/08/16 09:47:08;;;;;;;9.60;6.22;;;;;;;23.91;100.00;100141.53;5003193;28;20413;-85
2022/08/16 09:49:37;;;;;;;9.05;5.10;;;;;;;24.22;100.00;100144.16;5013525;28;20774;-84
2022/08/16 09:52:11;;;;;;;9.20;5.70;;;;;;;24.30;100.00;100148.56;4982897;28;21990;-84
2022/08/16 09:54:40;;;;;;;12.18;6.57;;;;;;;24.20;100.00;100141.75;5005932;28;20417;-85
2022/08/16 09:57:13;;;;;;;9.10;5.85;;;;;;;24.38;100.00;100153.00;4985156;28;20423;-85
2022/08/16 09:59:46;;;;;;;9.88;6.03;;;;;;;24.31;100.00;100152.16;5015978;28;20441;-86
2022/08/16 10:02:19;;;;;;;10.40;6.40;;;;;;;24.28;100.00;100157.31;4992434;28;20419;-83
2022/08/16 10:04:52;;;;;;;10.15;6.20;;;;;;;24.44;100.00;100159.00;4989164;28;20899;-84
2022/08/16 10:07:22;;;;;;;10.25;7.15;;;;;;;24.32;100.00;100150.97;5008155;28;20432;-84
2022/08/16 10:09:55;;;;;;;10.50;5.90;;;;;;;24.61;100.00;100155.56;5005927;28;20407;-84
2022/08/16 10:15:21;;;;;;;11.13;6.63;;;;;;;24.60;100.00;100153.91;5012933;28;20427;-85
2022/08/16 10:17:55;;;;;;;9.32;6.60;;;;;;;24.55;100.00;100164.63;5004324;28;20429;-84
2022/08/16 10:20:33;;;;;;;11.40;6.90;;;;;;;24.69;100.00;100163.94;4989355;28;20862;-84
2022/08/16 10:23:03;;;;;;;11.07;6.88;;;;;;;24.83;100.00;100161.25;4981823;28;20435;-83
2022/08/16 10:25:39;;;;;;;9.52;6.22;;;;;;;24.71;100.00;100167.13;5010284;28;20422;-84
2022/08/16 10:28:13;;;;;;;10.25;6.35;;;;;;;24.75;100.00;100159.59;4993936;28;20857;-83
2022/08/16 10:30:47;;;;;;;8.98;6.05;;;;;;;24.87;100.00;100161.25;4990973;28;20431;-84
2022/08/16 10:33:20;;;;;;;10.93;5.90;;;;;;;25.09;100.00;100162.13;4985506;28;20444;-83
2022/08/16 10:35:53;;;;;;;8.93;5.67;;;;;;;25.01;100.00;100172.44;5011070;28;20437;-84
2022/08/16 10:38:28;;;;;;;8.60;5.50;;;;;;;24.99;100.00;100162.91;4991548;28;20466;-83
2022/08/16 10:40:56;;;;;;;9.60;5.72;;;;;;;25.13;100.00;100165.72;4990679;28;20446;-84
2022/08/16 10:43:29;;;;;;;8.82;4.97;;;;;;;25.07;100.00;100176.44;4998951;28;20422;-83
2022/08/16 10:45:57;;;;;;;8.40;5.07;;;;;;;25.36;100.00;100161.88;4982037;28;20803;-84
2022/08/16 10:48:31;;;;;;;8.70;4.80;;;;;;;25.50;100.00;100166.66;5001645;28;20413;-84
2022/08/16 10:51:04;;;;;;;9.02;5.20;;;;;;;25.55;100.00;100169.03;5005944;28;20425;-87
2022/08/16 10:53:35;;;;;;;8.40;5.13;;;;;;;25.58;100.00;100162.69;5021213;28;20411;-84
2022/08/16 10:56:12;;;;;;;8.70;5.18;;;;;;;25.49;100.00;100159.50;4992508;28;20437;-83
2022/08/16 10:58:45;;;;;;;9.98;5.43;;;;;;;25.70;100.00;100162.31;5008628;28;21209;-82
2022/08/16 11:01:18;;;;;;;8.57;5.30;;;;;;;25.55;100.00;100169.03;5015361;28;20442;-83
2022/08/16 11:03:46;;;;;;;9.33;5.70;;;;;;;25.70;100.00;100167.91;4994033;28;20442;-84
2022/08/16 11:06:19;;;;;;;7.75;5.07;;;;;;;25.80;100.00;100171.88;5012363;28;20446;-85
2022/08/16 11:08:54;;;;;;;7.05;4.80;;;;;;;25.88;100.00;100178.25;5013633;28;20469;-85
2022/08/16 11:11:29;;;;;;;9.43;5.30;;;;;;;25.78;100.00;100179.84;5023864;28;21424;-82
2022/08/16 11:14:03;;;;;;;8.00;4.80;;;;;;;25.97;100.00;100167.50;5006824;28;20438;-84
2022/08/16 11:16:31;;;;;;;8.80;4.85;;;;;;;26.10;100.00;100168.75;4987648;28;20426;-83
2022/08/16 11:18:59;;;;;;;7.40;4.57;;;;;;;26.07;100.00;100172.31;4996682;28;20916;-83
2022/08/16 11:21:35;;;;;;;6.83;4.73;;;;;;;26.01;100.00;100173.88;5004340;28;20422;-85
2022/08/16 11:24:11;;;;;;;7.53;4.40;;;;;;;26.01;100.00;100173.09;4983892;28;20435;-83
2022/08/16 11:26:39;;;;;;;8.37;4.50;;;;;;;26.06;100.00;100186.66;4981848;28;20803;-85
2022/08/16 11:29:12;;;;;;;7.03;4.35;;;;;;;26.31;100.00;100181.06;5006875;28;20415;-84
2022/08/16 11:31:47;;;;;;;7.85;4.50;;;;;;;26.26;100.00;100182.25;4987929;28;20448;-85
2022/08/16 11:34:20;;;;;;;8.00;4.53;;;;;;;26.39;100.00;100179.88;4981799;28;20433;-85
2022/08/16 11:36:53;;;;;;;10.50;4.40;;;;;;;26.33;100.00;100167.50;5003304;28;20456;-84
2022/08/16 11:39:28;;;;;;;6.55;4.13;;;;;;;26.53;100.00;100178.22;5003209;28;20423;-84
2022/08/16 11:42:01;;;;;;;6.82;3.80;;;;;;;26.67;98.88;100171.81;4990314;28;21526;-86
2022/08/16 11:44:34;;;;;;;6.38;3.72;;;;;;;26.64;90.69;100174.22;5007300;28;20421;-82